Time;durP1;ratioP1;P1;durP2;ratioP2;P2;SDS_P1;SDS_P2;PMS_P1;PMS_P2;Temp;Humidity;BMP_temperature;BMP_pressure;BME280_temperature;BME280_humidity;BME280_pressure;Samples;Min_cycle;Max_cycle;Signal;HPM_P1;HPM_P2
2023/06/19 00:00:21;;;;;;;6.70;6.10;;;15.80;99.90;;;;;;5039397;28;20528;-80
2023/06/19 00:02:48;;;;;;;6.90;6.37;;;15.70;99.90;;;;;;5043906;28;20542;-80
2023/06/19 00:05:15;;;;;;;6.40;5.90;;;15.70;99.90;;;;;;5038721;28;20527;-80
2023/06/19 00:07:42;;;;;;;6.83;6.13;;;15.70;99.90;;;;;;5047511;28;20492;-81
2023/06/19 00:10:11;;;;;;;7.10;6.57;;;15.70;99.90;;;;;;5046269;28;21197;-80
2023/06/19 00:12:38;;;;;;;6.73;6.13;;;15.70;99.90;;;;;;5043996;28;20555;-82
2023/06/19 00:15:07;;;;;;;7.10;6.43;;;15.70;99.90;;;;;;5053275;28;20810;-81
2023/06/19 00:17:37;;;;;;;6.83;6.13;;;15.60;99.90;;;;;;5037463;28;21249;-80
2023/06/19 00:20:05;;;;;;;10.53;7.77;;;15.70;99.90;;;;;;5044337;28;20489;-82
2023/06/19 00:22:32;;;;;;;7.10;6.50;;;15.70;99.90;;;;;;5045975;28;20453;-80
2023/06/19 00:24:59;;;;;;;6.20;5.70;;;15.60;99.90;;;;;;5045259;28;20441;-80
2023/06/19 00:27:27;;;;;;;6.17;5.67;;;15.60;99.90;;;;;;5045519;28;20508;-79
2023/06/19 00:29:54;;;;;;;7.80;5.70;;;15.50;99.90;;;;;;5046330;28;20543;-80
2023/06/19 00:32:21;;;;;;;7.70;6.90;;;15.40;99.90;;;;;;5044361;28;20972;-79
2023/06/19 00:34:48;;;;;;;8.37;7.50;;;15.30;99.90;;;;;;5042895;28;20546;-79
2023/06/19 00:37:15;;;;;;;7.13;6.53;;;15.30;99.90;;;;;;5048445;28;20477;-80
2023/06/19 00:39:42;;;;;;;5.97;5.47;;;15.30;99.90;;;;;;5043008;28;20591;-80
2023/06/19 00:42:09;;;;;;;8.00;7.20;;;15.20;99.90;;;;;;5043498;28;20867;-80
2023/06/19 00:44:37;;;;;;;7.10;6.40;;;15.10;99.90;;;;;;5047864;28;21015;-79
2023/06/19 00:47:05;;;;;;;5.83;5.33;;;15.00;99.90;;;;;;5049724;28;20910;-82
2023/06/19 00:49:33;;;;;;;7.90;7.00;;;14.90;99.90;;;;;;5050497;28;20916;-79
2023/06/19 00:52:00;;;;;;;8.07;6.17;;;14.90;99.90;;;;;;5054436;28;20544;-80
2023/06/19 00:54:27;;;;;;;6.97;6.43;;;14.80;99.90;;;;;;5054628;28;20490;-79
2023/06/19 00:56:54;;;;;;;6.80;5.73;;;14.80;99.90;;;;;;5051718;28;20963;-80
2023/06/19 00:59:22;;;;;;;7.00;6.00;;;14.80;99.90;;;;;;5047796;28;20576;-81
2023/06/19 01:01:50;;;;;;;6.03;5.53;;;14.70;99.90;;;;;;5055551;28;21056;-79
2023/06/19 01:04:17;;;;;;;7.20;6.60;;;14.70;99.90;;;;;;5044671;28;20515;-81
2023/06/19 01:06:52;;;;;;;6.93;6.33;;;14.80;99.90;;;;;;5048207;28;20561;-80
2023/06/19 01:09:20;;;;;;;6.73;6.00;;;14.70;99.90;;;;;;5041074;28;20457;-80
2023/06/19 01:11:52;;;;;;;7.50;6.47;;;14.70;99.90;;;;;;5043534;28;20485;-80
2023/06/19 01:14:22;;;;;;;11.73;6.97;;;14.80;99.90;;;;;;5048655;28;20575;-79
2023/06/19 01:16:51;;;;;;;7.70;6.90;;;14.70;99.90;;;;;;5044641;28;20500;-79
2023/06/19 01:19:21;;;;;;;13.43;7.13;;;14.70;99.90;;;;;;5046230;28;20473;-79
2023/06/19 01:21:48;;;;;;;6.67;6.07;;;14.70;99.90;;;;;;5046948;28;20480;-80
2023/06/19 01:24:16;;;;;;;6.23;5.63;;;14.70;99.90;;;;;;5047476;28;20469;-79
2023/06/19 01:26:45;;;;;;;8.23;7.53;;;14.70;99.90;;;;;;5033185;28;20558;-81
2023/06/19 01:29:14;;;;;;;6.80;6.20;;;14.60;99.90;;;;;;5021154;28;20975;-80
2023/06/19 01:31:51;;;;;;;6.60;6.00;;;14.60;99.90;;;;;;5020005;28;20453;-80
2023/06/19 01:34:21;;;;;;;7.13;6.53;;;14.60;99.90;;;;;;5018496;28;20461;-79
2023/06/19 01:36:49;;;;;;;8.07;7.17;;;14.60;99.90;;;;;;5021209;28;22576;-80
2023/06/19 01:39:19;;;;;;;7.57;6.87;;;14.50;99.90;;;;;;5021456;28;20465;-81
2023/06/19 01:41:47;;;;;;;8.30;7.50;;;14.50;99.90;;;;;;5020082;28;20562;-80
2023/06/19 01:44:14;;;;;;;6.37;5.77;;;14.50;99.90;;;;;;5033927;28;20464;-79
2023/06/19 01:46:41;;;;;;;6.90;6.30;;;14.50;99.90;;;;;;5038484;28;22341;-81
2023/06/19 01:49:09;;;;;;;7.50;6.80;;;14.40;99.90;;;;;;5040094;28;20490;-81
2023/06/19 01:51:37;;;;;;;7.60;6.90;;;14.30;99.90;;;;;;5047409;28;20486;-80
2023/06/19 01:54:04;;;;;;;7.40;6.60;;;14.30;99.90;;;;;;5061964;28;20469;-80
2023/06/19 01:56:33;;;;;;;8.63;6.93;;;14.20;99.90;;;;;;5053445;28;20469;-80
2023/06/19 01:59:00;;;;;;;7.67;6.90;;;14.10;99.90;;;;;;5044671;28;21053;-80
2023/06/19 02:01:27;;;;;;;5.60;5.20;;;14.00;99.90;;;;;;5058780;28;20485;-80
2023/06/19 02:03:54;;;;;;;9.00;8.10;;;14.00;99.90;;;;;;5046944;28;20465;-80
2023/06/19 02:06:22;;;;;;;6.53;5.93;;;14.00;99.90;;;;;;5049204;28;20497;-80
2023/06/19 02:08:49;;;;;;;8.67;7.80;;;14.00;99.90;;;;;;5043959;28;20687;-80
2023/06/19 02:11:16;;;;;;;9.17;7.57;;;13.90;99.90;;;;;;5047751;28;20449;-79
2023/06/19 02:13:44;;;;;;;10.37;7.80;;;13.90;99.90;;;;;;5045336;28;20489;-79
2023/06/19 02:16:11;;;;;;;7.23;6.63;;;13.90;99.90;;;;;;5045499;28;20477;-80
2023/06/19 02:18:38;;;;;;;8.07;7.30;;;13.90;99.90;;;;;;5047026;28;20520;-79
2023/06/19 02:21:05;;;;;;;6.87;6.17;;;13.90;99.90;;;;;;5045803;28;20543;-81
2023/06/19 02:23:32;;;;;;;7.37;6.67;;;13.80;99.90;;;;;;5051281;28;21020;-80
2023/06/19 02:25:59;;;;;;;8.47;7.67;;;13.80;99.90;;;;;;5046980;28;20472;-80
2023/06/19 02:28:26;;;;;;;7.07;6.50;;;13.70;99.90;;;;;;5046494;28;20481;-81
2023/06/19 02:30:55;;;;;;;8.60;7.77;;;13.80;99.90;;;;;;5047128;28;20531;-79
2023/06/19 02:33:22;;;;;;;8.30;7.50;;;13.70;99.90;;;;;;5046232;28;20538;-79
2023/06/19 02:35:49;;;;;;;6.80;6.20;;;13.70;99.90;;;;;;5037556;28;20498;-80
2023/06/19 02:38:18;;;;;;;9.27;7.00;;;13.70;99.90;;;;;;5042647;28;20454;-80
2023/06/19 02:40:45;;;;;;;7.40;6.80;;;13.70;99.90;;;;;;5044951;28;20528;-81
2023/06/19 02:43:12;;;;;;;7.73;6.37;;;13.60;99.90;;;;;;5042784;28;20461;-82
2023/06/19 02:45:39;;;;;;;6.40;5.80;;;13.50;99.90;;;;;;5036188;28;20477;-80
2023/06/19 02:48:07;;;;;;;8.23;7.43;;;13.50;99.90;;;;;;5046690;28;20442;-80
2023/06/19 02:50:35;;;;;;;8.67;7.70;;;13.50;99.90;;;;;;5046587;28;20883;-80
2023/06/19 02:53:02;;;;;;;11.77;6.70;;;13.40;99.90;;;;;;5036329;28;20454;-80
2023/06/19 02:55:29;;;;;;;8.77;7.97;;;13.40;99.90;;;;;;5047057;28;20518;-80
2023/06/19 02:57:56;;;;;;;8.30;7.60;;;13.40;99.90;;;;;;5046627;28;20546;-79
2023/06/19 03:00:23;;;;;;;8.43;7.57;;;13.40;99.90;;;;;;5044311;28;20554;-80
2023/06/19 03:02:50;;;;;;;7.53;6.40;;;13.40;99.90;;;;;;5041755;28;20592;-80
2023/06/19 03:05:19;;;;;;;7.97;7.27;;;13.30;99.90;;;;;;5046401;28;20465;-80
2023/06/19 03:07:46;;;;;;;7.00;6.47;;;13.30;99.90;;;;;;5046213;28;20539;-77
2023/06/19 03:10:13;;;;;;;7.07;6.40;;;13.30;99.90;;;;;;5042956;28;20475;-80
2023/06/19 03:12:40;;;;;;;7.10;6.50;;;13.30;99.90;;;;;;5047070;28;20515;-79
2023/06/19 03:15:07;;;;;;;8.30;7.50;;;13.30;99.90;;;;;;5044683;28;20505;-80
2023/06/19 03:17:34;;;;;;;7.70;7.07;;;13.40;99.90;;;;;;5044801;28;20605;-80
2023/06/19 03:20:05;;;;;;;8.80;7.80;;;13.40;99.90;;;;;;5045859;28;20501;-80
2023/06/19 03:22:34;;;;;;;10.03;9.10;;;13.50;99.90;;;;;;5047601;28;20536;-79
2023/06/19 03:25:00;;;;;;;9.83;7.73;;;13.50;99.90;;;;;;5045570;28;20493;-79
2023/06/19 03:27:29;;;;;;;8.20;7.50;;;13.50;99.90;;;;;;5048689;28;20542;-81
2023/06/19 03:29:56;;;;;;;9.37;8.20;;;13.60;99.90;;;;;;5045456;28;20856;-78
2023/06/19 03:32:23;;;;;;;7.80;6.40;;;13.70;99.90;;;;;;5057400;28;20993;-79
2023/06/19 03:34:50;;;;;;;6.93;6.33;;;13.80;99.90;;;;;;5050111;28;20464;-78
2023/06/19 03:37:17;;;;;;;9.40;7.40;;;14.00;99.90;;;;;;5052530;28;20468;-78
2023/06/19 03:39:45;;;;;;;7.23;6.63;;;14.00;99.90;;;;;;5045723;28;21011;-78
2023/06/19 03:42:12;;;;;;;7.80;6.70;;;14.00;99.90;;;;;;5052745;28;20555;-79
2023/06/19 03:44:40;;;;;;;8.53;6.90;;;14.10;99.90;;;;;;5037635;28;20979;-79
2023/06/19 03:47:07;;;;;;;8.23;7.40;;;14.10;99.90;;;;;;5045587;28;20541;-79
2023/06/19 03:49:34;;;;;;;7.87;7.27;;;14.20;99.90;;;;;;5042956;28;20456;-79
2023/06/19 03:52:01;;;;;;;7.87;7.00;;;14.30;99.90;;;;;;5054772;28;20488;-78
2023/06/19 03:54:28;;;;;;;7.53;6.93;;;14.40;99.90;;;;;;5047879;28;21192;-80
2023/06/19 03:56:57;;;;;;;7.57;6.93;;;14.40;99.90;;;;;;5046327;28;20461;-79
2023/06/19 03:59:23;;;;;;;8.30;7.50;;;14.40;99.90;;;;;;5044398;28;20520;-79
2023/06/19 04:01:50;;;;;;;7.70;7.00;;;14.50;99.90;;;;;;5046514;28;21004;-78
2023/06/19 04:04:17;;;;;;;9.20;8.30;;;14.50;99.90;;;;;;5044846;28;20501;-78
2023/06/19 04:06:46;;;;;;;7.37;6.77;;;14.50;99.90;;;;;;5048118;28;20879;-79
2023/06/19 04:09:13;;;;;;;8.80;8.00;;;14.60;99.90;;;;;;5045876;28;21050;-79
2023/06/19 04:11:40;;;;;;;8.60;7.53;;;14.90;99.90;;;;;;5046234;28;20468;-79
2023/06/19 04:14:09;;;;;;;8.40;7.60;;;15.00;99.90;;;;;;5058410;28;20507;-81
2023/06/19 04:16:36;;;;;;;8.83;8.07;;;15.20;99.90;;;;;;5046316;28;20912;-79
2023/06/19 04:19:03;;;;;;;8.40;7.67;;;15.30;99.90;;;;;;5031092;28;21041;-81
2023/06/19 04:21:30;;;;;;;7.60;6.80;;;15.40;99.90;;;;;;5036238;28;20512;-80
2023/06/19 04:23:57;;;;;;;8.73;7.90;;;15.40;99.90;;;;;;5040848;28;20587;-79
2023/06/19 04:26:24;;;;;;;8.17;7.57;;;15.50;99.90;;;;;;5052640;28;20496;-79
2023/06/19 04:28:51;;;;;;;8.13;6.93;;;15.70;99.90;;;;;;5035103;28;20484;-79
2023/06/19 04:31:19;;;;;;;7.53;6.93;;;16.10;99.90;;;;;;5038428;28;20469;-80
2023/06/19 04:33:47;;;;;;;8.03;7.23;;;16.40;99.90;;;;;;5045894;28;20992;-78
2023/06/19 04:36:14;;;;;;;7.47;6.87;;;16.40;99.90;;;;;;5039368;28;20528;-78
2023/06/19 04:38:41;;;;;;;9.10;8.20;;;16.50;99.90;;;;;;5035072;28;20960;-79
2023/06/19 04:41:08;;;;;;;7.87;7.20;;;16.70;99.90;;;;;;5039718;28;20512;-80
2023/06/19 04:43:35;;;;;;;8.67;6.67;;;16.80;99.90;;;;;;5035451;28;20973;-78
2023/06/19 04:46:03;;;;;;;9.97;7.00;;;16.90;99.90;;;;;;5047706;28;20471;-78
2023/06/19 04:48:31;;;;;;;5.70;5.30;;;17.20;99.90;;;;;;5048546;28;20452;-84
2023/06/19 04:51:00;;;;;;;7.30;6.60;;;17.20;99.90;;;;;;5035911;28;20502;-80
2023/06/19 04:53:28;;;;;;;7.00;6.40;;;17.50;99.90;;;;;;5042168;28;20473;-77
2023/06/19 04:55:55;;;;;;;7.53;6.90;;;17.80;99.90;;;;;;5043938;28;20555;-79
2023/06/19 04:58:22;;;;;;;7.00;6.23;;;18.00;99.90;;;;;;5039838;28;20470;-77
2023/06/19 05:00:51;;;;;;;8.17;7.50;;;18.10;99.60;;;;;;5034754;28;20540;-79
2023/06/19 05:03:18;;;;;;;7.60;7.00;;;18.20;99.80;;;;;;5041500;28;20897;-82
2023/06/19 05:05:46;;;;;;;7.20;6.50;;;18.50;98.90;;;;;;5036119;28;20519;-79
2023/06/19 05:08:14;;;;;;;6.83;6.23;;;18.50;98.50;;;;;;5040925;28;20926;-81
2023/06/19 05:10:41;;;;;;;7.20;6.60;;;18.60;98.60;;;;;;5034568;28;21713;-81
2023/06/19 05:13:08;;;;;;;8.87;6.90;;;18.90;98.80;;;;;;5047306;28;20505;-82
2023/06/19 05:15:35;;;;;;;6.80;6.07;;;18.90;97.50;;;;;;5040452;28;20461;-81
2023/06/19 05:18:02;;;;;;;8.60;6.57;;;19.00;97.80;;;;;;5032624;28;20871;-82
2023/06/19 05:20:29;;;;;;;7.43;6.83;;;19.10;97.30;;;;;;5036217;28;20490;-81
2023/06/19 05:23:00;;;;;;;5.83;5.33;;;19.10;96.00;;;;;;5035880;28;20595;-81
2023/06/19 05:25:27;;;;;;;8.20;7.60;;;18.80;97.10;;;;;;5033970;28;20458;-81
2023/06/19 05:27:54;;;;;;;7.83;7.23;;;19.00;96.90;;;;;;5044259;28;20451;-81
2023/06/19 05:30:21;;;;;;;7.77;6.20;;;19.40;97.10;;;;;;5044777;28;20909;-83
2023/06/19 05:32:48;;;;;;;6.67;6.13;;;19.40;97.10;;;;;;5032972;28;20470;-81
2023/06/19 05:35:15;;;;;;;7.37;6.17;;;19.40;96.90;;;;;;5040435;28;20957;-83
2023/06/19 05:37:43;;;;;;;7.83;7.13;;;19.70;96.70;;;;;;5029417;28;20548;-80
2023/06/19 05:40:12;;;;;;;7.10;6.40;;;19.60;96.40;;;;;;5037776;28;20812;-80
2023/06/19 05:42:40;;;;;;;7.50;5.87;;;19.90;96.70;;;;;;5034307;28;20492;-90
2023/06/19 05:45:08;;;;;;;7.53;6.93;;;20.00;94.30;;;;;;5044439;28;21008;-79
2023/06/19 05:47:35;;;;;;;7.43;6.77;;;20.10;94.20;;;;;;5036469;28;20452;-79
2023/06/19 05:50:02;;;;;;;7.00;6.40;;;19.90;95.80;;;;;;5033972;28;20531;-78
2023/06/19 05:52:29;;;;;;;8.83;8.13;;;20.00;96.50;;;;;;5032126;28;20469;-80
2023/06/19 05:54:57;;;;;;;7.67;6.97;;;19.80;96.60;;;;;;5038817;28;20508;-78
2023/06/19 05:57:26;;;;;;;7.17;6.70;;;19.70;97.50;;;;;;5037771;28;20529;-78
2023/06/19 05:59:53;;;;;;;7.67;6.97;;;19.80;97.00;;;;;;5036859;28;20484;-78
2023/06/19 06:02:21;;;;;;;6.77;6.17;;;20.00;98.00;;;;;;5033992;28;20493;-79
2023/06/19 06:04:48;;;;;;;7.23;6.53;;;19.70;96.80;;;;;;5037450;28;20449;-85
2023/06/19 06:07:15;;;;;;;8.10;7.43;;;19.90;96.20;;;;;;5029220;28;20485;-79
2023/06/19 06:09:42;;;;;;;6.50;5.97;;;20.00;96.10;;;;;;5036304;28;20529;-80
2023/06/19 06:12:09;;;;;;;7.30;6.60;;;19.80;95.80;;;;;;5034284;28;20495;-81
2023/06/19 06:14:38;;;;;;;7.20;6.53;;;20.00;96.70;;;;;;5035630;28;20470;-81
2023/06/19 06:17:05;;;;;;;6.60;6.00;;;20.00;97.70;;;;;;5029306;28;20524;-80
2023/06/19 06:19:32;;;;;;;7.00;6.40;;;19.80;95.80;;;;;;5034797;28;20470;-79
2023/06/19 06:21:59;;;;;;;6.60;6.07;;;20.10;95.10;;;;;;5027312;28;20728;-79
2023/06/19 06:24:27;;;;;;;7.10;6.40;;;20.40;94.20;;;;;;5039358;28;20541;-82
2023/06/19 06:26:54;;;;;;;6.97;6.40;;;20.70;93.30;;;;;;5041767;28;20457;-79
2023/06/19 06:29:21;;;;;;;6.50;6.00;;;20.90;92.50;;;;;;5038207;28;20457;-81
2023/06/19 06:31:52;;;;;;;7.17;6.67;;;21.20;93.20;;;;;;5042124;28;20480;-80
2023/06/19 06:34:19;;;;;;;8.40;6.73;;;21.50;92.30;;;;;;5032761;28;20446;-79
2023/06/19 06:36:46;;;;;;;7.53;6.83;;;21.80;91.90;;;;;;5027420;28;20816;-81
2023/06/19 06:39:13;;;;;;;8.10;7.30;;;22.10;92.70;;;;;;5032851;28;20523;-79
2023/06/19 06:41:40;;;;;;;8.10;7.30;;;22.40;90.30;;;;;;5037589;28;20569;-78
2023/06/19 06:44:06;;;;;;;7.67;6.93;;;22.60;88.90;;;;;;5039320;28;21013;-78
2023/06/19 06:46:33;;;;;;;6.60;6.00;;;22.70;87.60;;;;;;5038930;28;20446;-77
2023/06/19 06:49:02;;;;;;;12.90;5.90;;;23.20;87.30;;;;;;5034583;28;20901;-78
2023/06/19 06:51:29;;;;;;;8.23;7.50;;;23.20;90.50;;;;;;5033784;28;20462;-79
2023/06/19 06:53:56;;;;;;;7.43;6.83;;;22.60;90.00;;;;;;5030936;28;20536;-78
2023/06/19 06:56:22;;;;;;;7.63;6.60;;;23.20;86.60;;;;;;5036668;28;20470;-78
2023/06/19 06:58:49;;;;;;;7.30;6.60;;;23.50;86.00;;;;;;5033013;28;20490;-79
2023/06/19 07:01:16;;;;;;;6.63;6.13;;;24.00;85.30;;;;;;5031470;28;20512;-79
2023/06/19 07:03:45;;;;;;;7.67;7.07;;;24.10;80.80;;;;;;5033798;28;20470;-79
2023/06/19 07:06:13;;;;;;;12.63;8.07;;;24.00;81.40;;;;;;5030480;28;20454;-79
2023/06/19 07:08:40;;;;;;;8.17;7.50;;;23.70;81.50;;;;;;5037355;28;20542;-79
2023/06/19 07:11:07;;;;;;;7.23;6.63;;;23.60;84.60;;;;;;5039332;28;20872;-79
2023/06/19 07:13:34;;;;;;;6.63;6.13;;;23.50;83.80;;;;;;5028980;28;20454;-85
2023/06/19 07:16:01;;;;;;;6.30;5.80;;;23.80;87.00;;;;;;5041886;28;20469;-79
2023/06/19 07:18:29;;;;;;;6.87;6.20;;;24.10;79.90;;;;;;5031177;28;20576;-78
2023/06/19 07:20:56;;;;;;;6.50;5.90;;;24.40;77.90;;;;;;5035140;28;20530;-77
2023/06/19 07:23:24;;;;;;;7.60;7.00;;;24.70;72.50;;;;;;5027842;28;20829;-78
2023/06/19 07:25:51;;;;;;;6.93;6.33;;;25.10;69.30;;;;;;5035487;28;20504;-79
2023/06/19 07:28:18;;;;;;;7.67;6.90;;;24.90;72.60;;;;;;5035391;28;21061;-78
2023/06/19 07:30:47;;;;;;;7.50;7.00;;;24.80;74.60;;;;;;5036201;28;20589;-79
2023/06/19 07:33:14;;;;;;;7.00;6.40;;;24.40;72.70;;;;;;5033685;28;20467;-79
2023/06/19 07:35:41;;;;;;;6.60;6.00;;;24.30;73.10;;;;;;5030913;28;20608;-80
2023/06/19 07:38:08;;;;;;;8.20;7.50;;;23.90;74.10;;;;;;5031731;28;20987;-81
2023/06/19 07:40:36;;;;;;;6.90;6.13;;;23.70;78.60;;;;;;5046018;28;21019;-77
2023/06/19 07:43:03;;;;;;;6.43;5.83;;;23.60;78.90;;;;;;5035275;28;20888;-79
2023/06/19 07:45:30;;;;;;;7.30;6.60;;;23.40;77.50;;;;;;5045480;28;20506;-79
2023/06/19 07:47:58;;;;;;;6.63;5.93;;;23.30;79.20;;;;;;5048315;28;20461;-82
2023/06/19 07:50:25;;;;;;;7.83;7.20;;;23.10;82.50;;;;;;5049414;28;20457;-80
2023/06/19 07:52:52;;;;;;;7.20;6.50;;;23.10;82.30;;;;;;5050104;28;20510;-78
2023/06/19 07:55:19;;;;;;;6.63;6.13;;;23.20;79.00;;;;;;5050615;28;20995;-79
2023/06/19 07:57:47;;;;;;;7.10;6.60;;;23.30;81.20;;;;;;5049017;28;20461;-80
2023/06/19 08:00:15;;;;;;;8.70;7.93;;;23.50;82.20;;;;;;5043102;28;20551;-79
2023/06/19 08:02:42;;;;;;;8.73;8.10;;;23.50;80.00;;;;;;5037532;28;20992;-81
2023/06/19 08:05:10;;;;;;;8.23;7.53;;;23.40;81.40;;;;;;5032727;28;20473;-82
2023/06/19 08:07:38;;;;;;;8.73;8.03;;;23.40;79.60;;;;;;5030480;28;20583;-78
2023/06/19 08:10:05;;;;;;;8.67;7.97;;;23.30;81.00;;;;;;5040637;28;21033;-80
2023/06/19 08:12:32;;;;;;;9.03;8.23;;;23.10;84.70;;;;;;5042294;28;20490;-80
2023/06/19 08:15:01;;;;;;;9.40;8.60;;;23.00;84.40;;;;;;5040785;28;20466;-79
2023/06/19 08:17:28;;;;;;;9.80;8.00;;;23.00;87.50;;;;;;5034681;28;20464;-78
2023/06/19 08:19:54;;;;;;;12.03;9.40;;;23.00;89.60;;;;;;5039055;28;21022;-80
2023/06/19 08:22:21;;;;;;;8.93;8.03;;;22.90;85.50;;;;;;5033118;28;20543;-80
2023/06/19 08:24:48;;;;;;;9.43;8.57;;;23.00;86.00;;;;;;5035373;28;20529;-80
2023/06/19 08:27:15;;;;;;;9.07;8.17;;;23.10;82.50;;;;;;5032201;28;21113;-79
2023/06/19 08:29:43;;;;;;;9.47;8.50;;;23.20;82.50;;;;;;5038900;28;20510;-78
2023/06/19 08:32:11;;;;;;;9.20;8.40;;;23.30;86.80;;;;;;5036416;28;20450;-78
2023/06/19 08:34:38;;;;;;;10.63;8.50;;;23.20;85.80;;;;;;5046198;28;20453;-77
2023/06/19 08:37:06;;;;;;;8.30;7.70;;;23.40;82.20;;;;;;5044019;28;20457;-80
2023/06/19 08:39:33;;;;;;;10.37;8.33;;;23.60;82.50;;;;;;5041978;28;20498;-76
2023/06/19 08:42:00;;;;;;;9.77;8.80;;;23.90;78.60;;;;;;5043206;28;20520;-77
2023/06/19 08:44:27;;;;;;;9.73;8.87;;;23.90;77.00;;;;;;5044524;28;20465;-78
2023/06/19 08:46:54;;;;;;;8.80;8.10;;;24.00;79.50;;;;;;5049015;28;20534;-78
2023/06/19 08:49:22;;;;;;;7.93;7.33;;;24.20;81.60;;;;;;5046898;28;20475;-78
2023/06/19 08:51:49;;;;;;;10.13;9.43;;;24.60;79.90;;;;;;5050196;28;20524;-77
2023/06/19 08:54:16;;;;;;;8.70;7.83;;;24.80;75.50;;;;;;5048844;28;20878;-78
2023/06/19 08:56:43;;;;;;;8.07;7.37;;;25.10;72.70;;;;;;5047010;28;20482;-78
2023/06/19 08:59:11;;;;;;;8.40;7.60;;;25.40;76.10;;;;;;5046477;28;20557;-79
2023/06/19 09:01:38;;;;;;;11.37;10.20;;;25.60;72.50;;;;;;5047942;28;20461;-77
2023/06/19 09:04:12;;;;;;;9.27;8.27;;;25.20;69.40;;;;;;5039115;28;21038;-79
2023/06/19 09:06:49;;;;;;;8.60;8.00;;;25.10;69.90;;;;;;5034983;28;21139;-81
2023/06/19 09:09:16;;;;;;;9.90;8.80;;;25.00;77.10;;;;;;5035229;28;20513;-78
2023/06/19 09:11:44;;;;;;;8.53;7.73;;;25.40;74.60;;;;;;5044289;28;20483;-78
2023/06/19 09:14:11;;;;;;;8.37;7.50;;;25.70;71.70;;;;;;5035556;28;20469;-78
2023/06/19 09:16:40;;;;;;;8.30;7.60;;;26.10;67.20;;;;;;5036659;28;21037;-78
2023/06/19 09:19:07;;;;;;;9.00;8.10;;;26.00;69.10;;;;;;5037494;28;20463;-80
2023/06/19 09:21:38;;;;;;;9.43;7.97;;;26.00;67.90;;;;;;5037289;28;20451;-79
2023/06/19 09:24:08;;;;;;;8.07;7.37;;;25.70;72.30;;;;;;5040522;28;20971;-79
2023/06/19 09:26:35;;;;;;;7.03;6.57;;;25.40;67.40;;;;;;5038143;28;20453;-79
2023/06/19 09:29:12;;;;;;;8.30;7.27;;;25.30;69.20;;;;;;5031277;28;20453;-78
2023/06/19 09:31:41;;;;;;;8.13;7.63;;;25.40;68.70;;;;;;5041974;28;20486;-79
2023/06/19 09:34:08;;;;;;;7.10;6.50;;;25.60;68.60;;;;;;5039839;28;20870;-80
2023/06/19 09:36:36;;;;;;;7.40;6.00;;;26.00;68.30;;;;;;5028087;28;20507;-79
2023/06/19 09:39:04;;;;;;;9.60;8.97;;;26.70;62.30;;;;;;5041186;28;20519;-80
2023/06/19 09:41:35;;;;;;;7.50;6.80;;;27.20;60.20;;;;;;5029556;28;20500;-80
2023/06/19 09:44:12;;;;;;;6.23;5.77;;;27.50;59.30;;;;;;5041284;28;20524;-79
2023/06/19 09:46:42;;;;;;;9.03;6.77;;;27.10;54.80;;;;;;5045401;28;20982;-79
2023/06/19 09:49:11;;;;;;;7.20;6.67;;;26.70;56.30;;;;;;5041259;28;20468;-78
2023/06/19 09:51:42;;;;;;;7.63;7.03;;;26.90;63.60;;;;;;5047080;28;20457;-78
2023/06/19 09:54:10;;;;;;;7.07;6.57;;;26.90;56.80;;;;;;5047428;28;20522;-80
2023/06/19 09:56:39;;;;;;;6.60;6.17;;;26.80;58.00;;;;;;5045092;28;20461;-79
2023/06/19 09:59:09;;;;;;;7.53;6.90;;;26.90;60.50;;;;;;5041478;28;20882;-81
2023/06/19 10:01:37;;;;;;;6.47;5.87;;;27.10;53.20;;;;;;5042785;28;20465;-77
2023/06/19 10:04:06;;;;;;;6.27;5.73;;;26.90;58.80;;;;;;5046960;28;20596;-79
2023/06/19 10:06:33;;;;;;;7.03;6.40;;;26.90;55.70;;;;;;5044148;28;20520;-77
2023/06/19 10:09:08;;;;;;;7.43;6.73;;;27.20;57.60;;;;;;5037841;28;20472;-78
2023/06/19 10:11:52;;;;;;;7.33;6.73;;;27.40;53.70;;;;;;5035474;28;20530;-79
2023/06/19 10:14:19;;;;;;;7.10;6.47;;;27.60;51.80;;;;;;5032181;28;20467;-77
2023/06/19 10:16:46;;;;;;;6.80;6.30;;;27.60;53.10;;;;;;5032456;28;20486;-81
2023/06/19 10:19:16;;;;;;;8.20;7.47;;;27.40;53.90;;;;;;5034786;28;20530;-78
2023/06/19 10:21:49;;;;;;;7.63;7.03;;;27.70;52.60;;;;;;5028835;28;20954;-78
2023/06/19 10:24:18;;;;;;;8.33;7.47;;;27.80;53.50;;;;;;5036041;28;20485;-78
2023/06/19 10:26:58;;;;;;;7.40;6.90;;;27.70;51.90;;;;;;5034417;28;20969;-79
2023/06/19 10:29:27;;;;;;;9.27;8.57;;;27.90;52.60;;;;;;5035069;28;20458;-78
2023/06/19 10:31:54;;;;;;;7.23;6.40;;;28.10;54.80;;;;;;5036977;28;20525;-78
2023/06/19 10:34:21;;;;;;;7.93;7.30;;;28.00;50.80;;;;;;5034013;28;20458;-78
2023/06/19 10:36:48;;;;;;;7.03;6.53;;;27.80;51.20;;;;;;5033736;28;20941;-78
2023/06/19 10:39:16;;;;;;;7.83;7.23;;;27.90;50.80;;;;;;5042216;28;20521;-78
2023/06/19 10:41:43;;;;;;;14.13;8.20;;;28.20;53.70;;;;;;5040503;28;20459;-79
2023/06/19 10:44:12;;;;;;;7.60;7.00;;;28.20;55.90;;;;;;5030720;28;20500;-79
2023/06/19 10:46:40;;;;;;;7.63;7.00;;;28.60;52.00;;;;;;5042843;28;20534;-77
2023/06/19 10:49:10;;;;;;;7.23;6.67;;;28.90;52.30;;;;;;5042342;28;20463;-78
2023/06/19 10:51:37;;;;;;;7.10;6.60;;;28.80;49.80;;;;;;5045119;28;20447;-77
2023/06/19 10:54:05;;;;;;;9.07;8.27;;;28.80;50.50;;;;;;5046985;28;20500;-78
2023/06/19 10:56:32;;;;;;;8.60;7.97;;;28.40;48.20;;;;;;5046389;28;20446;-79
2023/06/19 10:59:01;;;;;;;7.80;7.30;;;28.60;50.20;;;;;;5046524;28;20490;-79
2023/06/19 11:01:37;;;;;;;8.27;7.43;;;28.70;52.50;;;;;;5047651;28;20498;-79
2023/06/19 11:04:08;;;;;;;8.77;7.97;;;29.00;52.40;;;;;;5046313;28;20528;-78
2023/06/19 11:06:36;;;;;;;7.63;7.13;;;29.10;57.10;;;;;;5044535;28;20451;-77
2023/06/19 11:09:04;;;;;;;7.00;6.50;;;29.20;48.90;;;;;;5041598;28;20472;-78
2023/06/19 11:11:39;;;;;;;8.57;7.93;;;29.10;48.60;;;;;;5043770;28;20471;-80
2023/06/19 11:14:07;;;;;;;8.90;8.00;;;28.80;49.50;;;;;;5043741;28;20982;-81
2023/06/19 11:16:34;;;;;;;6.77;6.37;;;28.60;48.90;;;;;;5039538;28;20464;-81
2023/06/19 11:19:02;;;;;;;8.63;7.93;;;28.80;46.40;;;;;;5035709;28;20485;-78
2023/06/19 11:21:34;;;;;;;7.03;6.50;;;28.90;46.30;;;;;;5040407;28;20545;-79
2023/06/19 11:24:01;;;;;;;7.43;6.93;;;29.00;44.40;;;;;;5034834;28;20493;-79
2023/06/19 11:26:28;;;;;;;8.00;7.47;;;29.30;46.20;;;;;;5035843;28;20550;-79
2023/06/19 11:28:55;;;;;;;7.17;6.77;;;29.70;47.00;;;;;;5035426;28;20569;-80
2023/06/19 11:31:27;;;;;;;7.73;7.10;;;29.70;44.90;;;;;;5042148;28;20526;-79
2023/06/19 11:33:58;;;;;;;7.37;6.77;;;29.90;42.40;;;;;;5041991;28;20555;-79
2023/06/19 11:36:27;;;;;;;7.60;6.97;;;30.30;40.10;;;;;;5042829;28;20441;-79
2023/06/19 11:38:54;;;;;;;8.73;7.93;;;30.10;40.50;;;;;;5045693;28;20468;-82
2023/06/19 11:41:28;;;;;;;7.37;6.67;;;30.20;40.20;;;;;;5039263;28;20520;-81
2023/06/19 11:44:01;;;;;;;8.60;7.90;;;30.30;41.00;;;;;;5039904;28;20568;-80
2023/06/19 11:46:31;;;;;;;7.30;6.70;;;30.40;40.10;;;;;;5041621;28;20469;-79
2023/06/19 11:49:08;;;;;;;7.00;6.47;;;30.50;38.40;;;;;;5046278;28;20549;-80
2023/06/19 11:51:37;;;;;;;6.83;6.27;;;30.50;37.50;;;;;;5043878;28;20468;-80
2023/06/19 11:54:08;;;;;;;5.30;4.90;;;30.30;36.50;;;;;;5039516;28;21065;-80
2023/06/19 11:56:35;;;;;;;5.90;5.40;;;30.40;39.80;;;;;;5045082;28;20481;-80
2023/06/19 11:59:03;;;;;;;7.03;6.53;;;30.00;34.80;;;;;;5034441;28;21362;-81
2023/06/19 12:01:30;;;;;;;5.30;4.90;;;30.60;35.00;;;;;;5034094;28;21181;-80
2023/06/19 12:03:56;;;;;;;6.00;5.47;;;30.70;28.50;;;;;;5028269;28;20486;-79
2023/06/19 12:06:23;;;;;;;6.83;6.33;;;30.90;28.10;;;;;;5040198;28;20957;-79
2023/06/19 12:08:52;;;;;;;6.30;5.90;;;31.20;30.70;;;;;;5034746;28;20504;-81
2023/06/19 12:11:19;;;;;;;7.10;6.40;;;31.30;31.60;;;;;;5036427;28;20515;-79
2023/06/19 12:13:46;;;;;;;6.37;5.97;;;30.90;34.00;;;;;;5033355;28;20512;-80
2023/06/19 12:16:14;;;;;;;7.27;6.77;;;30.80;34.90;;;;;;5032238;28;21001;-79
2023/06/19 12:18:41;;;;;;;5.10;4.70;;;30.40;33.30;;;;;;5034188;28;20464;-79
2023/06/19 12:21:08;;;;;;;5.83;5.50;;;30.30;32.70;;;;;;5030019;28;20490;-79
2023/06/19 12:23:35;;;;;;;5.60;5.20;;;30.40;35.60;;;;;;5031434;28;20489;-79
2023/06/19 12:26:03;;;;;;;5.50;5.00;;;30.60;31.90;;;;;;5033537;28;20482;-81
2023/06/19 12:28:30;;;;;;;8.80;5.93;;;30.70;30.00;;;;;;5037650;28;20453;-78
2023/06/19 12:30:58;;;;;;;6.20;5.67;;;30.60;30.10;;;;;;5043661;28;20534;-80
2023/06/19 12:33:25;;;;;;;6.17;5.77;;;30.60;32.30;;;;;;5036857;28;20579;-80
2023/06/19 12:35:52;;;;;;;5.20;4.80;;;30.40;30.50;;;;;;5040256;28;20481;-82
2023/06/19 12:38:19;;;;;;;6.20;5.80;;;30.50;32.50;;;;;;5034396;28;20535;-80
2023/06/19 12:40:46;;;;;;;6.70;6.10;;;30.20;31.90;;;;;;5035037;28;20457;-80
2023/06/19 12:43:14;;;;;;;6.57;6.07;;;30.20;30.00;;;;;;5035958;28;20493;-79
2023/06/19 12:45:42;;;;;;;6.10;5.50;;;30.30;30.50;;;;;;5048646;28;20527;-80
2023/06/19 12:48:10;;;;;;;5.60;5.10;;;30.40;33.70;;;;;;5038178;28;21126;-80